sensor_id;sensor_type;location;lat;lon;timestamp;pressure;altitude;pressure_sealevel;temperature
68440;BMP180;55421;51.600;5.718;2023-04-01T00:01:26;164519.59;;;9.90
68440;BMP180;55421;51.600;5.718;2023-04-01T00:03:52;164513.41;;;9.90
68440;BMP180;55421;51.600;5.718;2023-04-01T00:06:20;164510.20;;;9.90
68440;BMP180;55421;51.600;5.718;2023-04-01T00:08:47;164510.59;;;9.90
68440;BMP180;55421;51.600;5.718;2023-04-01T00:11:15;164503.41;;;9.90
68440;BMP180;55421;51.600;5.718;2023-04-01T00:13:42;164501.41;;;9.90
68440;BMP180;55421;51.600;5.718;2023-04-01T00:16:09;164494.59;;;9.90
68440;BMP180;55421;51.600;5.718;2023-04-01T00:18:37;164486.59;;;9.84
68440;BMP180;55421;51.600;5.718;2023-04-01T00:21:06;164479.41;;;9.80
68440;BMP180;55421;51.600;5.718;2023-04-01T00:23:33;164471.41;;;9.80
68440;BMP180;55421;51.600;5.718;2023-04-01T00:26:02;164464.20;;;9.80
68440;BMP180;55421;51.600;5.718;2023-04-01T00:28:29;164457.41;;;9.80
68440;BMP180;55421;51.600;5.718;2023-04-01T00:30:56;164454.20;;;9.80
68440;BMP180;55421;51.600;5.718;2023-04-01T00:33:22;164453.80;;;9.80
68440;BMP180;55421;51.600;5.718;2023-04-01T00:35:48;164453.80;;;9.80
68440;BMP180;55421;51.600;5.718;2023-04-01T00:38:15;164453.80;;;9.80
68440;BMP180;55421;51.600;5.718;2023-04-01T00:40:46;164453.00;;;9.80
68440;BMP180;55421;51.600;5.718;2023-04-01T00:43:17;164449.80;;;9.80
68440;BMP180;55421;51.600;5.718;2023-04-01T00:45:50;164451.80;;;9.80
68440;BMP180;55421;51.600;5.718;2023-04-01T00:48:22;164443.80;;;9.80
68440;BMP180;55421;51.600;5.718;2023-04-01T00:50:55;164440.20;;;9.76
68440;BMP180;55421;51.600;5.718;2023-04-01T00:53:24;164441.41;;;9.76
68440;BMP180;55421;51.600;5.718;2023-04-01T00:56:01;164435.41;;;9.70
68440;BMP180;55421;51.600;5.718;2023-04-01T00:58:35;164430.59;;;9.70
68440;BMP180;55421;51.600;5.718;2023-04-01T01:01:05;164431.80;;;9.70
68440;BMP180;55421;51.600;5.718;2023-04-01T01:03:32;164430.59;;;9.70
68440;BMP180;55421;51.600;5.718;2023-04-01T01:09:10;164428.20;;;9.70
68440;BMP180;55421;51.600;5.718;2023-04-01T01:12:15;164430.59;;;9.70
68440;BMP180;55421;51.600;5.718;2023-04-01T01:15:13;164424.59;;;9.70
68440;BMP180;55421;51.600;5.718;2023-04-01T01:18:07;164425.80;;;9.70
68440;BMP180;55421;51.600;5.718;2023-04-01T01:24:36;164422.20;;;9.70
68440;BMP180;55421;51.600;5.718;2023-04-01T01:27:12;164417.80;;;9.70
68440;BMP180;55421;51.600;5.718;2023-04-01T01:35:52;164416.59;;;9.70
68440;BMP180;55421;51.600;5.718;2023-04-01T01:38:24;164412.59;;;9.70
68440;BMP180;55421;51.600;5.718;2023-04-01T01:40:55;164409.80;;;9.70
68440;BMP180;55421;51.600;5.718;2023-04-01T01:43:33;164409.00;;;9.70
68440;BMP180;55421;51.600;5.718;2023-04-01T01:46:07;164403.80;;;9.70
68440;BMP180;55421;51.600;5.718;2023-04-01T01:48:36;164405.00;;;9.70
68440;BMP180;55421;51.600;5.718;2023-04-01T01:51:07;164406.59;;;9.70
68440;BMP180;55421;51.600;5.718;2023-04-01T01:53:35;164405.41;;;9.70
68440;BMP180;55421;51.600;5.718;2023-04-01T01:56:03;164407.80;;;9.70
68440;BMP180;55421;51.600;5.718;2023-04-01T01:58:34;164407.00;;;9.70
68440;BMP180;55421;51.600;5.718;2023-04-01T02:01:23;164405.41;;;9.70
68440;BMP180;55421;51.600;5.718;2023-04-01T02:03:52;164407.41;;;9.70
68440;BMP180;55421;51.600;5.718;2023-04-01T02:06:24;164402.59;;;9.68
68440;BMP180;55421;51.600;5.718;2023-04-01T02:09:02;164394.20;;;9.60
68440;BMP180;55421;51.600;5.718;2023-04-01T02:11:45;164385.80;;;9.60
68440;BMP180;55421;51.600;5.718;2023-04-01T02:14:26;164383.41;;;9.60
68440;BMP180;55421;51.600;5.718;2023-04-01T02:17:00;164380.20;;;9.60
68440;BMP180;55421;51.600;5.718;2023-04-01T02:19:37;164368.59;;;9.60
68440;BMP180;55421;51.600;5.718;2023-04-01T02:22:11;164366.59;;;9.60
68440;BMP180;55421;51.600;5.718;2023-04-01T02:24:41;164365.59;;;9.60
68440;BMP180;55421;51.600;5.718;2023-04-01T02:27:10;164362.20;;;9.60
68440;BMP180;55421;51.600;5.718;2023-04-01T02:29:37;164363.41;;;9.60
68440;BMP180;55421;51.600;5.718;2023-04-01T02:32:06;164360.00;;;9.60
68440;BMP180;55421;51.600;5.718;2023-04-01T02:34:33;164364.20;;;9.60
68440;BMP180;55421;51.600;5.718;2023-04-01T02:37:01;164362.20;;;9.56
68440;BMP180;55421;51.600;5.718;2023-04-01T02:39:28;164350.41;;;9.50
68440;BMP180;55421;51.600;5.718;2023-04-01T02:41:54;164340.41;;;9.50
68440;BMP180;55421;51.600;5.718;2023-04-01T02:44:21;164332.41;;;9.50
68440;BMP180;55421;51.600;5.718;2023-04-01T02:46:48;164335.59;;;9.50
68440;BMP180;55421;51.600;5.718;2023-04-01T02:49:14;164332.00;;;9.50
68440;BMP180;55421;51.600;5.718;2023-04-01T02:51:41;164325.59;;;9.50
68440;BMP180;55421;51.600;5.718;2023-04-01T02:54:07;164316.00;;;9.42
68440;BMP180;55421;51.600;5.718;2023-04-01T02:56:34;164319.59;;;9.44
68440;BMP180;55421;51.600;5.718;2023-04-01T02:59:00;164317.20;;;9.46
68440;BMP180;55421;51.600;5.718;2023-04-01T03:01:26;164319.59;;;9.50
68440;BMP180;55421;51.600;5.718;2023-04-01T03:03:53;164312.41;;;9.42
68440;BMP180;55421;51.600;5.718;2023-04-01T03:06:19;164314.80;;;9.42
68440;BMP180;55421;51.600;5.718;2023-04-01T03:08:46;164316.00;;;9.44
68440;BMP180;55421;51.600;5.718;2023-04-01T03:11:13;164310.00;;;9.40
68440;BMP180;55421;51.600;5.718;2023-04-01T03:13:40;164299.20;;;9.40
68440;BMP180;55421;51.600;5.718;2023-04-01T03:16:06;164287.59;;;9.40
68440;BMP180;55421;51.600;5.718;2023-04-01T03:18:33;164284.80;;;9.40
68440;BMP180;55421;51.600;5.718;2023-04-01T03:21:22;164275.59;;;9.40
68440;BMP180;55421;51.600;5.718;2023-04-01T03:23:50;164273.20;;;9.38
68440;BMP180;55421;51.600;5.718;2023-04-01T03:26:17;164264.00;;;9.30
68440;BMP180;55421;51.600;5.718;2023-04-01T03:28:44;164255.80;;;9.30
68440;BMP180;55421;51.600;5.718;2023-04-01T03:31:11;164257.00;;;9.30
68440;BMP180;55421;51.600;5.718;2023-04-01T03:33:38;164255.00;;;9.30
68440;BMP180;55421;51.600;5.718;2023-04-01T03:36:05;164251.41;;;9.30
68440;BMP180;55421;51.600;5.718;2023-04-01T03:38:35;164246.59;;;9.30
68440;BMP180;55421;51.600;5.718;2023-04-01T03:41:02;164243.00;;;9.30
68440;BMP180;55421;51.600;5.718;2023-04-01T03:43:29;164235.80;;;9.30
68440;BMP180;55421;51.600;5.718;2023-04-01T03:45:55;164237.00;;;9.30
68440;BMP180;55421;51.600;5.718;2023-04-01T03:48:25;164231.41;;;9.26
68440;BMP180;55421;51.600;5.718;2023-04-01T03:50:52;164229.41;;;9.22
68440;BMP180;55421;51.600;5.718;2023-04-01T03:53:18;164228.20;;;9.22
68440;BMP180;55421;51.600;5.718;2023-04-01T03:55:46;164221.80;;;9.20
68440;BMP180;55421;51.600;5.718;2023-04-01T03:58:13;164224.59;;;9.20
68440;BMP180;55421;51.600;5.718;2023-04-01T04:00:39;164219.00;;;9.20
68440;BMP180;55421;51.600;5.718;2023-04-01T04:03:06;164220.59;;;9.20
68440;BMP180;55421;51.600;5.718;2023-04-01T04:05:33;164218.20;;;9.20
68440;BMP180;55421;51.600;5.718;2023-04-01T04:07:59;164206.59;;;9.20
68440;BMP180;55421;51.600;5.718;2023-04-01T04:10:26;164203.80;;;9.20
68440;BMP180;55421;51.600;5.718;2023-04-01T04:12:56;164195.00;;;9.20
68440;BMP180;55421;51.600;5.718;2023-04-01T04:15:22;164191.41;;;9.20
68440;BMP180;55421;51.600;5.718;2023-04-01T04:17:49;164191.41;;;9.20
68440;BMP180;55421;51.600;5.718;2023-04-01T04:20:15;164190.59;;;9.20
68440;BMP180;55421;51.600;5.718;2023-04-01T04:22:42;164188.20;;;9.20
68440;BMP180;55421;51.600;5.718;2023-04-01T04:25:08;164185.80;;;9.20
68440;BMP180;55421;51.600;5.718;2023-04-01T04:27:35;164185.80;;;9.16
68440;BMP180;55421;51.600;5.718;2023-04-01T04:30:04;164178.59;;;9.12
68440;BMP180;55421;51.600;5.718;2023-04-01T04:32:31;164178.59;;;9.12
68440;BMP180;55421;51.600;5.718;2023-04-01T04:34:58;164169.41;;;9.10
68440;BMP180;55421;51.600;5.718;2023-04-01T04:37:24;164168.59;;;9.10
68440;BMP180;55421;51.600;5.718;2023-04-01T04:39:52;164167.80;;;9.10
68440;BMP180;55421;51.600;5.718;2023-04-01T04:42:18;164166.59;;;9.10
68440;BMP180;55421;51.600;5.718;2023-04-01T04:44:45;164163.00;;;9.10
68440;BMP180;55421;51.600;5.718;2023-04-01T04:47:11;164155.41;;;9.10
68440;BMP180;55421;51.600;5.718;2023-04-01T04:49:38;164157.41;;;9.10
68440;BMP180;55421;51.600;5.718;2023-04-01T04:52:04;164155.41;;;9.10
68440;BMP180;55421;51.600;5.718;2023-04-01T04:54:31;164143.41;;;9.10
68440;BMP180;55421;51.600;5.718;2023-04-01T04:56:57;164142.59;;;9.08
68440;BMP180;55421;51.600;5.718;2023-04-01T04:59:24;164138.59;;;9.06
68440;BMP180;55421;51.600;5.718;2023-04-01T05:01:50;164141.00;;;9.00
68440;BMP180;55421;51.600;5.718;2023-04-01T05:04:17;164129.20;;;9.00
68440;BMP180;55421;51.600;5.718;2023-04-01T05:06:43;164125.80;;;9.00
68440;BMP180;55421;51.600;5.718;2023-04-01T05:09:11;164120.00;;;9.00
68440;BMP180;55421;51.600;5.718;2023-04-01T05:11:38;164115.20;;;9.00
68440;BMP180;55421;51.600;5.718;2023-04-01T05:14:04;164109.59;;;9.00
68440;BMP180;55421;51.600;5.718;2023-04-01T05:16:31;164113.59;;;9.00
68440;BMP180;55421;51.600;5.718;2023-04-01T05:18:58;164112.41;;;9.00
68440;BMP180;55421;51.600;5.718;2023-04-01T05:21:24;164109.59;;;9.00
68440;BMP180;55421;51.600;5.718;2023-04-01T05:23:51;164104.00;;;9.00
68440;BMP180;55421;51.600;5.718;2023-04-01T05:26:18;164098.80;;;9.00
68440;BMP180;55421;51.600;5.718;2023-04-01T05:28:44;164097.59;;;8.94
68440;BMP180;55421;51.600;5.718;2023-04-01T05:31:11;164092.41;;;8.90
68440;BMP180;55421;51.600;5.718;2023-04-01T05:33:37;164087.20;;;8.90
68440;BMP180;55421;51.600;5.718;2023-04-01T05:36:10;164089.59;;;8.90
68440;BMP180;55421;51.600;5.718;2023-04-01T05:38:38;164081.20;;;8.90
68440;BMP180;55421;51.600;5.718;2023-04-01T05:41:04;164075.59;;;8.90
68440;BMP180;55421;51.600;5.718;2023-04-01T05:43:31;164075.59;;;8.90
68440;BMP180;55421;51.600;5.718;2023-04-01T05:45:57;164071.20;;;8.90
68440;BMP180;55421;51.600;5.718;2023-04-01T05:48:24;164070.00;;;8.90
68440;BMP180;55421;51.600;5.718;2023-04-01T05:50:50;164068.80;;;8.90
68440;BMP180;55421;51.600;5.718;2023-04-01T05:53:17;164068.80;;;8.90
68440;BMP180;55421;51.600;5.718;2023-04-01T05:55:43;164072.41;;;8.90
68440;BMP180;55421;51.600;5.718;2023-04-01T05:58:10;164070.00;;;8.90
68440;BMP180;55421;51.600;5.718;2023-04-01T06:00:37;164070.00;;;8.90
68440;BMP180;55421;51.600;5.718;2023-04-01T06:03:03;164070.00;;;8.90
68440;BMP180;55421;51.600;5.718;2023-04-01T06:05:42;164071.20;;;8.90
68440;BMP180;55421;51.600;5.718;2023-04-01T06:08:17;164072.41;;;8.90
68440;BMP180;55421;51.600;5.718;2023-04-01T06:14:16;164086.00;;;8.90
68440;BMP180;55421;51.600;5.718;2023-04-01T06:17:19;164088.41;;;8.90
68440;BMP180;55421;51.600;5.718;2023-04-01T06:25:37;164100.41;;;8.92
68440;BMP180;55421;51.600;5.718;2023-04-01T06:37:42;164132.00;;;9.00
68440;BMP180;55421;51.600;5.718;2023-04-01T06:40:47;164136.59;;;9.04
68440;BMP180;55421;51.600;5.718;2023-04-01T06:43:59;164146.20;;;9.10
68440;BMP180;55421;51.600;5.718;2023-04-01T06:47:25;164153.00;;;9.10
68440;BMP180;55421;51.600;5.718;2023-04-01T06:50:26;164158.59;;;9.10
68440;BMP180;55421;51.600;5.718;2023-04-01T06:53:28;164162.20;;;9.10
68440;BMP180;55421;51.600;5.718;2023-04-01T06:56:09;164175.00;;;9.10
68440;BMP180;55421;51.600;5.718;2023-04-01T06:58:42;164183.41;;;9.18
68440;BMP180;55421;51.600;5.718;2023-04-01T07:01:19;164197.41;;;9.20
68440;BMP180;55421;51.600;5.718;2023-04-01T07:03:56;164215.00;;;9.20
68440;BMP180;55421;51.600;5.718;2023-04-01T07:06:39;164220.59;;;9.20
68440;BMP180;55421;51.600;5.718;2023-04-01T07:09:16;164225.80;;;9.22
68440;BMP180;55421;51.600;5.718;2023-04-01T07:11:45;164235.80;;;9.28
68440;BMP180;55421;51.600;5.718;2023-04-01T07:14:36;164241.80;;;9.30
68440;BMP180;55421;51.600;5.718;2023-04-01T07:17:19;164250.20;;;9.30
68440;BMP180;55421;51.600;5.718;2023-04-01T07:20:23;164251.41;;;9.30
68440;BMP180;55421;51.600;5.718;2023-04-01T07:22:58;164260.00;;;9.30
68440;BMP180;55421;51.600;5.718;2023-04-01T07:25:48;164267.00;;;9.34
68440;BMP180;55421;51.600;5.718;2023-04-01T07:28:17;164285.59;;;9.40
68440;BMP180;55421;51.600;5.718;2023-04-01T07:31:20;164292.41;;;9.40
68440;BMP180;55421;51.600;5.718;2023-04-01T07:36:49;164295.59;;;9.40
68440;BMP180;55421;51.600;5.718;2023-04-01T07:51:49;164303.59;;;9.40
68440;BMP180;55421;51.600;5.718;2023-04-01T07:57:41;164298.41;;;9.40
68440;BMP180;55421;51.600;5.718;2023-04-01T08:00:21;164311.20;;;9.40
68440;BMP180;55421;51.600;5.718;2023-04-01T08:03:23;164329.59;;;9.50
68440;BMP180;55421;51.600;5.718;2023-04-01T08:05:58;164353.59;;;9.54
68440;BMP180;55421;51.600;5.718;2023-04-01T08:09:00;164379.80;;;9.60
68440;BMP180;55421;51.600;5.718;2023-04-01T08:11:41;164407.00;;;9.70
68440;BMP180;55421;51.600;5.718;2023-04-01T08:17:40;164444.59;;;9.76
68440;BMP180;55421;51.600;5.718;2023-04-01T08:20:25;164459.80;;;9.80
68440;BMP180;55421;51.600;5.718;2023-04-01T08:23:30;164462.20;;;9.80
68440;BMP180;55421;51.600;5.718;2023-04-01T08:26:42;164477.41;;;9.80
68440;BMP180;55421;51.600;5.718;2023-04-01T08:29:20;164489.00;;;9.88
68440;BMP180;55421;51.600;5.718;2023-04-01T08:31:58;164500.20;;;9.90
68440;BMP180;55421;51.600;5.718;2023-04-01T08:34:36;164495.41;;;9.90
68440;BMP180;55421;51.600;5.718;2023-04-01T08:37:17;164487.80;;;9.80
68440;BMP180;55421;51.600;5.718;2023-04-01T08:39:51;164474.59;;;9.80
68440;BMP180;55421;51.600;5.718;2023-04-01T08:45:57;164463.41;;;9.80
68440;BMP180;55421;51.600;5.718;2023-04-01T08:48:59;164458.59;;;9.80
68440;BMP180;55421;51.600;5.718;2023-04-01T08:51:47;164456.20;;;9.80
68440;BMP180;55421;51.600;5.718;2023-04-01T08:54:42;164458.59;;;9.80
68440;BMP180;55421;51.600;5.718;2023-04-01T09:00:31;164455.00;;;9.80
68440;BMP180;55421;51.600;5.718;2023-04-01T09:06:12;164459.80;;;9.80
68440;BMP180;55421;51.600;5.718;2023-04-01T09:09:04;164458.59;;;9.80
68440;BMP180;55421;51.600;5.718;2023-04-01T09:12:08;164469.00;;;9.80
68440;BMP180;55421;51.600;5.718;2023-04-01T09:17:51;164495.80;;;9.90
68440;BMP180;55421;51.600;5.718;2023-04-01T09:24:01;164509.00;;;9.90
68440;BMP180;55421;51.600;5.718;2023-04-01T09:35:55;164501.41;;;9.90
68440;BMP180;55421;51.600;5.718;2023-04-01T09:38:57;164505.00;;;9.90
68440;BMP180;55421;51.600;5.718;2023-04-01T09:44:37;164505.59;;;9.90
68440;BMP180;55421;51.600;5.718;2023-04-01T09:47:32;164518.00;;;9.90
68440;BMP180;55421;51.600;5.718;2023-04-01T09:50:14;164543.20;;;10.00
68440;BMP180;55421;51.600;5.718;2023-04-01T09:54:03;164571.20;;;10.02
68440;BMP180;55421;51.600;5.718;2023-04-01T10:16:51;164635.41;;;10.20
68440;BMP180;55421;51.600;5.718;2023-04-01T10:22:58;164676.59;;;10.30
68440;BMP180;55421;51.600;5.718;2023-04-01T10:25:37;164686.20;;;10.30
68440;BMP180;55421;51.600;5.718;2023-04-01T10:28:33;164707.00;;;10.40
68440;BMP180;55421;51.600;5.718;2023-04-01T10:36:58;164718.20;;;10.40
68440;BMP180;55421;51.600;5.718;2023-04-01T10:49:18;164715.80;;;10.40
68440;BMP180;55421;51.600;5.718;2023-04-01T10:52:22;164729.80;;;10.40
68440;BMP180;55421;51.600;5.718;2023-04-01T10:55:19;164731.00;;;10.40
68440;BMP180;55421;51.600;5.718;2023-04-01T11:01:34;164738.20;;;10.40
68440;BMP180;55421;51.600;5.718;2023-04-01T11:07:36;164780.00;;;10.50
68440;BMP180;55421;51.600;5.718;2023-04-01T11:25:22;164981.80;;;11.00
68440;BMP180;55421;51.600;5.718;2023-04-01T11:28:28;165016.41;;;11.10
68440;BMP180;55421;51.600;5.718;2023-04-01T11:40:27;164973.41;;;11.00
68440;BMP180;55421;51.600;5.718;2023-04-01T11:46:11;164923.00;;;10.90
68440;BMP180;55421;51.600;5.718;2023-04-01T11:52:19;164915.00;;;10.82
68440;BMP180;55421;51.600;5.718;2023-04-01T11:55:22;164908.59;;;10.80
68440;BMP180;55421;51.600;5.718;2023-04-01T11:58:05;164887.00;;;10.80
68440;BMP180;55421;51.600;5.718;2023-04-01T12:07:16;164854.00;;;10.70
68440;BMP180;55421;51.600;5.718;2023-04-01T12:10:18;164851.20;;;10.70
68440;BMP180;55421;51.600;5.718;2023-04-01T12:16:19;164830.80;;;10.62
68440;BMP180;55421;51.600;5.718;2023-04-01T12:19:01;164807.59;;;10.60
68440;BMP180;55421;51.600;5.718;2023-04-01T12:21:42;164790.80;;;10.56
68440;BMP180;55421;51.600;5.718;2023-04-01T12:30:33;164747.41;;;10.48
68440;BMP180;55421;51.600;5.718;2023-04-01T12:33:23;164740.20;;;10.40
68440;BMP180;55421;51.600;5.718;2023-04-01T12:36:01;164742.59;;;10.40
68440;BMP180;55421;51.600;5.718;2023-04-01T12:47:54;164853.20;;;10.70
68440;BMP180;55421;51.600;5.718;2023-04-01T12:53:30;164936.59;;;10.90
68440;BMP180;55421;51.600;5.718;2023-04-01T12:56:36;164953.80;;;10.96
68440;BMP180;55421;51.600;5.718;2023-04-01T12:59:35;164958.20;;;10.96
68440;BMP180;55421;51.600;5.718;2023-04-01T13:08:29;164977.80;;;11.00
68440;BMP180;55421;51.600;5.718;2023-04-01T13:11:25;165000.59;;;11.08
68440;BMP180;55421;51.600;5.718;2023-04-01T13:17:18;165056.00;;;11.20
68440;BMP180;55421;51.600;5.718;2023-04-01T13:19:53;165071.20;;;11.20
68440;BMP180;55421;51.600;5.718;2023-04-01T13:28:09;165043.20;;;11.16
68440;BMP180;55421;51.600;5.718;2023-04-01T13:30:49;165013.41;;;11.10
68440;BMP180;55421;51.600;5.718;2023-04-01T13:33:45;164989.00;;;11.00
68440;BMP180;55421;51.600;5.718;2023-04-01T13:39:35;164951.41;;;10.92
68440;BMP180;55421;51.600;5.718;2023-04-01T13:42:47;164939.80;;;10.90
68440;BMP180;55421;51.600;5.718;2023-04-01T13:46:05;164937.41;;;10.90
68440;BMP180;55421;51.600;5.718;2023-04-01T13:49:01;164930.59;;;10.90
68440;BMP180;55421;51.600;5.718;2023-04-01T13:54:45;164915.00;;;10.82
68440;BMP180;55421;51.600;5.718;2023-04-01T13:57:44;164902.59;;;10.80
68440;BMP180;55421;51.600;5.718;2023-04-01T14:06:02;164889.00;;;10.80
68440;BMP180;55421;51.600;5.718;2023-04-01T14:09:04;164896.20;;;10.80
68440;BMP180;55421;51.600;5.718;2023-04-01T14:15:14;164892.59;;;10.80
68440;BMP180;55421;51.600;5.718;2023-04-01T14:18:13;164891.80;;;10.80
68440;BMP180;55421;51.600;5.718;2023-04-01T14:24:14;164891.80;;;10.80
68440;BMP180;55421;51.600;5.718;2023-04-01T14:27:12;164889.00;;;10.80
68440;BMP180;55421;51.600;5.718;2023-04-01T14:29:59;164886.80;;;10.80
68440;BMP180;55421;51.600;5.718;2023-04-01T14:36:29;164837.59;;;10.70
68440;BMP180;55421;51.600;5.718;2023-04-01T14:39:47;164830.80;;;10.60
68440;BMP180;55421;51.600;5.718;2023-04-01T14:46:22;164852.80;;;10.70
68440;BMP180;55421;51.600;5.718;2023-04-01T14:49:04;164868.41;;;10.72
68440;BMP180;55421;51.600;5.718;2023-04-01T14:51:36;164868.00;;;10.74
68440;BMP180;55421;51.600;5.718;2023-04-01T14:56:51;164889.00;;;10.80
68440;BMP180;55421;51.600;5.718;2023-04-01T14:59:29;164898.59;;;10.80
68440;BMP180;55421;51.600;5.718;2023-04-01T15:05:15;164900.20;;;10.80
68440;BMP180;55421;51.600;5.718;2023-04-01T15:16:26;164886.80;;;10.80
68440;BMP180;55421;51.600;5.718;2023-04-01T15:22:37;164882.59;;;10.80
68440;BMP180;55421;51.600;5.718;2023-04-01T15:31:29;164930.20;;;10.90
68440;BMP180;55421;51.600;5.718;2023-04-01T15:34:41;164929.80;;;10.90
68440;BMP180;55421;51.600;5.718;2023-04-01T15:46:44;164907.00;;;10.80
68440;BMP180;55421;51.600;5.718;2023-04-01T15:49:41;164893.41;;;10.80
68440;BMP180;55421;51.600;5.718;2023-04-01T15:55:26;164878.80;;;10.80
68440;BMP180;55421;51.600;5.718;2023-04-01T16:01:20;164855.20;;;10.70
68440;BMP180;55421;51.600;5.718;2023-04-01T16:07:25;164822.41;;;10.60
68440;BMP180;55421;51.600;5.718;2023-04-01T16:16:05;164806.00;;;10.60
68440;BMP180;55421;51.600;5.718;2023-04-01T16:21:59;164801.59;;;10.60
68440;BMP180;55421;51.600;5.718;2023-04-01T16:30:40;164792.00;;;10.54
68440;BMP180;55421;51.600;5.718;2023-04-01T16:36:33;164786.00;;;10.52
68440;BMP180;55421;51.600;5.718;2023-04-01T16:47:40;164796.80;;;10.58
68440;BMP180;55421;51.600;5.718;2023-04-01T16:50:46;164804.00;;;10.60
68440;BMP180;55421;51.600;5.718;2023-04-01T16:53:49;164814.41;;;10.60
68440;BMP180;55421;51.600;5.718;2023-04-01T16:56:28;164819.20;;;10.60
68440;BMP180;55421;51.600;5.718;2023-04-01T16:59:07;164831.59;;;10.60
68440;BMP180;55421;51.600;5.718;2023-04-01T17:01:49;164842.80;;;10.70
68440;BMP180;55421;51.600;5.718;2023-04-01T17:04:44;164848.80;;;10.70
68440;BMP180;55421;51.600;5.718;2023-04-01T17:07:32;164862.41;;;10.70
68440;BMP180;55421;51.600;5.718;2023-04-01T17:10:46;164876.20;;;10.78
68440;BMP180;55421;51.600;5.718;2023-04-01T17:13:31;164858.80;;;10.70
68440;BMP180;55421;51.600;5.718;2023-04-01T17:19:41;164838.80;;;10.70
68440;BMP180;55421;51.600;5.718;2023-04-01T17:31:35;164829.20;;;10.62
68440;BMP180;55421;51.600;5.718;2023-04-01T17:34:35;164821.20;;;10.60
68440;BMP180;55421;51.600;5.718;2023-04-01T17:37:34;164811.20;;;10.60
68440;BMP180;55421;51.600;5.718;2023-04-01T17:40:25;164804.80;;;10.60
68440;BMP180;55421;51.600;5.718;2023-04-01T17:46:35;164787.20;;;10.52
68440;BMP180;55421;51.600;5.718;2023-04-01T17:52:58;164763.20;;;10.50
68440;BMP180;55421;51.600;5.718;2023-04-01T18:04:47;164732.20;;;10.40
68440;BMP180;55421;51.600;5.718;2023-04-01T18:10:21;164705.80;;;10.38
68440;BMP180;55421;51.600;5.718;2023-04-01T18:13:10;164691.80;;;10.30
68440;BMP180;55421;51.600;5.718;2023-04-01T18:19:27;164681.41;;;10.30
68440;BMP180;55421;51.600;5.718;2023-04-01T18:22:24;164668.59;;;10.30
68440;BMP180;55421;51.600;5.718;2023-04-01T18:25:21;164641.41;;;10.20
68440;BMP180;55421;51.600;5.718;2023-04-01T18:30:30;164599.59;;;10.10
68440;BMP180;55421;51.600;5.718;2023-04-01T18:33:36;164592.80;;;10.10
68440;BMP180;55421;51.600;5.718;2023-04-01T18:36:46;164575.20;;;10.08
68440;BMP180;55421;51.600;5.718;2023-04-01T18:39:36;164557.20;;;10.00
68440;BMP180;55421;51.600;5.718;2023-04-01T18:45:08;164518.41;;;9.90
68440;BMP180;55421;51.600;5.718;2023-04-01T18:47:44;164496.20;;;9.90
68440;BMP180;55421;51.600;5.718;2023-04-01T18:50:41;164478.59;;;9.80
68440;BMP180;55421;51.600;5.718;2023-04-01T18:53:34;164458.59;;;9.80
68440;BMP180;55421;51.600;5.718;2023-04-01T18:56:10;164447.00;;;9.74
68440;BMP180;55421;51.600;5.718;2023-04-01T19:01:42;164415.41;;;9.70
68440;BMP180;55421;51.600;5.718;2023-04-01T19:04:37;164406.20;;;9.70
68440;BMP180;55421;51.600;5.718;2023-04-01T19:07:51;164396.59;;;9.62
68440;BMP180;55421;51.600;5.718;2023-04-01T19:10:57;164369.80;;;9.60
68440;BMP180;55421;51.600;5.718;2023-04-01T19:16:21;164334.41;;;9.50
68440;BMP180;55421;51.600;5.718;2023-04-01T19:21:56;164294.41;;;9.40
68440;BMP180;55421;51.600;5.718;2023-04-01T19:27:49;164257.00;;;9.30
68440;BMP180;55421;51.600;5.718;2023-04-01T19:30:35;164232.20;;;9.30
68440;BMP180;55421;51.600;5.718;2023-04-01T19:33:33;164213.80;;;9.20
68440;BMP180;55421;51.600;5.718;2023-04-01T19:36:19;164197.41;;;9.20
68440;BMP180;55421;51.600;5.718;2023-04-01T19:39:06;164185.80;;;9.20
68440;BMP180;55421;51.600;5.718;2023-04-01T19:47:30;164170.20;;;9.10
68440;BMP180;55421;51.600;5.718;2023-04-01T19:50:26;164158.59;;;9.10
68440;BMP180;55421;51.600;5.718;2023-04-01T19:52:53;164150.59;;;9.10
68440;BMP180;55421;51.600;5.718;2023-04-01T19:55:44;164137.80;;;9.06
68440;BMP180;55421;51.600;5.718;2023-04-01T19:58:50;164124.00;;;9.00
68440;BMP180;55421;51.600;5.718;2023-04-01T20:01:44;164112.41;;;9.00
68440;BMP180;55421;51.600;5.718;2023-04-01T20:07:32;164098.80;;;8.90
68440;BMP180;55421;51.600;5.718;2023-04-01T20:10:20;164092.00;;;8.90
68440;BMP180;55421;51.600;5.718;2023-04-01T20:13:17;164088.80;;;8.90
68440;BMP180;55421;51.600;5.718;2023-04-01T20:16:04;164083.20;;;8.90
68440;BMP180;55421;51.600;5.718;2023-04-01T20:18:54;164073.59;;;8.90
68440;BMP180;55421;51.600;5.718;2023-04-01T20:21:42;164064.00;;;8.90
68440;BMP180;55421;51.600;5.718;2023-04-01T20:24:23;164044.41;;;8.80
68440;BMP180;55421;51.600;5.718;2023-04-01T20:27:17;164030.20;;;8.80
68440;BMP180;55421;51.600;5.718;2023-04-01T20:30:33;164007.41;;;8.70
68440;BMP180;55421;51.600;5.718;2023-04-01T20:36:39;163971.41;;;8.64
68440;BMP180;55421;51.600;5.718;2023-04-01T20:45:51;163941.80;;;8.60
68440;BMP180;55421;51.600;5.718;2023-04-01T20:48:58;163939.80;;;8.60
68440;BMP180;55421;51.600;5.718;2023-04-01T20:51:32;163935.00;;;8.60
68440;BMP180;55421;51.600;5.718;2023-04-01T20:57:25;163922.59;;;8.50
68440;BMP180;55421;51.600;5.718;2023-04-01T21:06:31;163878.20;;;8.40
68440;BMP180;55421;51.600;5.718;2023-04-01T21:15:50;163838.00;;;8.40
68440;BMP180;55421;51.600;5.718;2023-04-01T21:21:31;163810.41;;;8.30
68440;BMP180;55421;51.600;5.718;2023-04-01T21:27:10;163789.80;;;8.20
68440;BMP180;55421;51.600;5.718;2023-04-01T21:42:02;163703.80;;;8.00
68440;BMP180;55421;51.600;5.718;2023-04-01T21:45:01;163692.20;;;8.00
68440;BMP180;55421;51.600;5.718;2023-04-01T21:47:42;163688.59;;;8.00
68440;BMP180;55421;51.600;5.718;2023-04-01T21:50:42;163686.20;;;8.00
68440;BMP180;55421;51.600;5.718;2023-04-01T21:56:55;163665.00;;;7.92
68440;BMP180;55421;51.600;5.718;2023-04-01T21:59:48;163640.41;;;7.90
68440;BMP180;55421;51.600;5.718;2023-04-01T22:03:03;163618.80;;;7.84
68440;BMP180;55421;51.600;5.718;2023-04-01T22:05:40;163615.59;;;7.80